Forecasts are only available for sites displaying the forecast symbol.

Some water levels are actually in metres AHD (Australian Height Datum), click individual sites for more details.

Scroll for more >

River gauges, storages, and weirs in the Murray–Darling Basin

Typesort ascending Location River Water level Flow Volume Release Water temp Salinity Rainfall
Weirs Lock 2 Upstream Murray 6.24 m 7/04/2020 11:45 Not measured Not measured Not measured 19.7°C 7/04/2020 11:45 213.6 μS/cm 7/04/2020 11:45 Not measured Full data
Weirs Lock 1 Upstream Murray 3.31 m 7/04/2020 11:45 Not measured Not measured Not measured 19.7°C 7/04/2020 11:45 214.5 μS/cm 7/04/2020 11:45 Not measured Full data
Weirs Lock 8 Upstream Murray 23.61 m 7/04/2020 11:45 Not measured Not measured Not measured 20.0°C 7/04/2020 11:45 112.6 μS/cm 7/04/2020 11:45 Not measured Full data
Weirs Lock 6 Upstream Murray 19.26 m 7/04/2020 11:45 Not measured Not measured Not measured 19.5°C 7/04/2020 11:45 142.8 μS/cm 7/04/2020 11:45 Not measured Full data
Weirs Steven's Weir Upstream Edward 4.5 m 7/04/2020 12:00 Not measured Not measured Not measured Not measured Not measured Not measured Full data
Weirs Lock 5 Downstream Murray 13.38 m 7/04/2020 11:45 Not measured Not measured Not measured Not measured Not measured Not measured Full data
Weirs Lock 1 Downstream Murray 0.47 m 7/04/2020 11:45 Not measured Not measured 2880.7 ML/d7/04/2020 7:45 Not measured Not measured Not measured Full data
Weirs Steven's Weir Downstream Edward 1.15 m 7/04/2020 11:45 874 ML/Day 7/04/2020 11:45 Not measured Not measured 18.2°C 7/04/2020 11:45 56.8 μS/cm 7/04/2020 11:45 Not measured Full data
Weirs Lock 5 Upstream Murray 16.32 m 7/04/2020 11:45 Not measured Not measured Not measured 20.3°C 7/04/2020 11:45 155.6 μS/cm 7/04/2020 11:45 Not measured Full data
Weirs Euston Weir Upstream Murray 47.63 m 7/04/2020 7:45 Not measured 37 GL 7/04/2020 7:45 Not measured Not measured Not measured 145.9 mm 5/03/2020 9:00 Full data
Weirs Lock 4 Downstream Murray 10.24 m 7/04/2020 11:45 Not measured Not measured Not measured Not measured Not measured Not measured Full data
Weirs Euston Weir Downstream Murray 43 m 7/04/2020 11:45 5859 ML/Day 7/04/2020 11:45 Not measured Not measured 18.7°C 7/04/2020 11:45 99.8 μS/cm 7/04/2020 11:45 Not measured Full data
Weirs Lock 7 Downstream Murray 19.9 m 7/04/2020 11:45 Not measured Not measured Not measured Not measured Not measured Not measured Full data
Weirs Torrumbarry Weir Downstream Murray 1.8 m 7/04/2020 11:45 4823 ML/Day 7/04/2020 11:45 Not measured Not measured 19.0°C 7/04/2020 11:45 72.2 μS/cm 7/04/2020 11:45 Not measured Full data
Weirs Lock 4 Upstream Murray 13.31 m 7/04/2020 11:45 Not measured Not measured Not measured Not measured Not measured Not measured Full data
Weirs Yarrawonga Weir Upstream Murray 124.78 m 7/04/2020 12:00 Not measured Not measured Not measured Not measured Not measured 0.00 mm 7/04/2020 9:00 Full data
Weirs Lock 7 Upstream Murray 21.54 m 7/04/2020 11:45 Not measured Not measured Not measured 19.9°C 7/04/2020 11:45 95.8 μS/cm 7/04/2020 11:45 Not measured Full data
Weirs Torrumbarry Weir Upstream Murray 86.05 m 7/04/2020 12:00 Not measured 37 GL 7/04/2020 8:45 Not measured 18.9°C 7/04/2020 8:45 71.7 μS/cm 7/04/2020 10:45 0.00 mm 7/04/2020 9:00 Full data
Weirs Lock 3 Downstream Murray 6.34 m 7/04/2020 11:45 Not measured Not measured Not measured Not measured Not measured Not measured Full data
Weirs Mildura Weir downstream Murray 30.95 m 7/04/2020 11:45 Not measured Not measured Not measured 13.4°C 7/04/2020 11:45 148.5 μS/cm 7/04/2020 11:45 Not measured Full data
Weirs Yarrawonga Weir Downstream Murray 1.11 m 7/04/2020 12:00 6491 ML/Day 7/04/2020 12:00 Not measured Not measured 18.2°C 7/04/2020 11:15 73.6 μS/cm 7/04/2020 11:15 Not measured Full data
Weirs Wentworth Weir Murray 27.48 m 7/04/2020 11:45 Not measured Not measured 4574.0 ML/d7/04/2020 8:45 Not measured 101.0 μS/cm 7/04/2020 7:45 47.5 mm 5/03/2020 9:00 Full data
Weirs Lock 3 Upstream Murray 9.9 m 7/04/2020 11:45 Not measured Not measured Not measured Not measured Not measured Not measured Full data
Weirs Lock 9 Downstream Murray 23.62 m 7/04/2020 11:45 Not measured Not measured Not measured Not measured Not measured Not measured Full data
Weirs Lock 9 Upstream Murray 27.29 m 7/04/2020 11:45 Not measured Not measured Not measured 20.2°C 7/04/2020 11:45 102.8 μS/cm 7/04/2020 11:45 Not measured Full data
Weirs Lock 6 Downstream Murray 16.29 m 7/04/2020 11:45 Not measured Not measured Not measured Not measured Not measured Not measured Full data
Weirs Lock 2 Downstream Murray 3.36 m 7/04/2020 11:45 Not measured Not measured Not measured Not measured Not measured Not measured Full data
Storage Hume Dam Murray 172.2 m 7/04/2020 12:15 Not measured 400 GL 7/04/2020 12:15 1452.0 ML/d7/04/2020 8:00 Not measured Not measured 0.00 mm 7/04/2020 9:00 Full data
Storage Lake Victoria Murray 22.84 m 6/04/2020 9:45 Not measured 232 GL 6/04/2020 9:45 Not measured 17.2°C 6/04/2020 9:45 141.4 μS/cm 6/04/2020 9:45 Not measured Full data
Storage Dartmouth Dam Mitta 447.36 m 7/04/2020 12:15 Not measured 1803 GL 7/04/2020 12:15 Not measured Not measured Not measured Not measured Full data
Storage Menindee Lakes Darling Not measured Not measured 236 GL 7/04/2020 7:45 Not measured Not measured Not measured Not measured Full data
River Gauge Tocumwal Murray 1.63 m 7/04/2020 11:45 5855 ML/Day 7/04/2020 11:45 Not measured Not measured 17.6°C 7/04/2020 11:45 27.7 μS/cm 7/04/2020 11:45 Not measured Full data
River Gauge Edward Escape Wakool 0.45 m 7/04/2020 11:45 221 ML/Day 7/04/2020 11:45 Not measured Not measured 17.0°C 7/04/2020 11:45 71.2 μS/cm 7/04/2020 11:45 Not measured Full data
River Gauge Rochester Campaspe 2.68 m 7/04/2020 11:45 764 ML/Day 7/04/2020 11:45 Not measured Not measured 16.0°C 7/04/2020 11:45 507.8 μS/cm 7/04/2020 11:45 0.00 mm 7/04/2020 9:00 Full data
River Gauge Swan Hill Murray 1.09 m 7/04/2020 11:45 5201 ML/Day 7/04/2020 11:45 Not measured Not measured 18.0°C 7/04/2020 11:45 80.3 μS/cm 7/04/2020 11:45 Not measured Full data
River Gauge Bandiana Kiewa 1.9 m 7/04/2020 11:45 1823 ML/Day 7/04/2020 11:45 Not measured Not measured 13.6°C 7/04/2020 11:45 31.4 μS/cm 7/04/2020 11:45 Not measured Full data
River Gauge Morgan Downstream Murray Not measured Not measured Not measured 3443.6 ML/d7/04/2020 11:45 Not measured 214.7 μS/cm 7/04/2020 9:45 Not measured Full data
River Gauge Murray Bridge Murray 0.5 m 7/04/2020 11:45 Not measured Not measured Not measured 19.1°C 7/04/2020 11:45 272.9 μS/cm 7/04/2020 11:45 Not measured Full data
River Gauge Frenchman Creek Murray 27.27 m 7/04/2020 7:45 Not measured Not measured 2041.0 ML/d7/04/2020 7:45 Not measured Not measured Not measured Full data
River Gauge Edward River Offtake Murray 2.06 m 7/04/2020 12:00 1108 ML/Day 7/04/2020 12:00 Not measured Not measured 17.7°C 7/04/2020 11:45 53.6 μS/cm 7/04/2020 11:45 Not measured Full data
River Gauge Barmah Choke Murray 2.07 m 7/04/2020 11:45 5458 ML/Day 7/04/2020 11:45 Not measured Not measured Not measured Not measured Not measured Full data
River Gauge Wakool Junction Murray 2.52 m 7/04/2020 11:45 5999 ML/Day 7/04/2020 11:45 Not measured Not measured 17.8°C 7/04/2020 11:45 84.6 μS/cm 7/04/2020 11:45 Not measured Full data
River Gauge Doctors Point Murray 1.87 m 7/04/2020 12:15 3142 ML/Day 7/04/2020 12:15 Not measured Not measured 16.4°C 7/04/2020 12:15 55.5 μS/cm 7/04/2020 12:15 Not measured Full data
River Gauge Kerang Loddon 0.43 m 7/04/2020 11:45 298 ML/Day 7/04/2020 11:45 Not measured Not measured 16.1°C 7/04/2020 11:45 84.4 μS/cm 7/04/2020 11:45 Not measured Full data
River Gauge Lake Alexandrina Murray 0.52 m 7/04/2020 5:45 Not measured 1465 GL 7/04/2020 5:45 Not measured Not measured 960.1 μS/cm 7/04/2020 11:45 Not measured Full data
River Gauge Gulpa Creek Offtake Murray 2.2 m 7/04/2020 11:45 197 ML/Day 7/04/2020 11:45 Not measured Not measured Not measured Not measured Not measured Full data
River Gauge Redcliffs Murray Not measured Not measured Not measured Not measured Not measured 43.6 μS/cm 22/10/2019 13:45 Not measured Full data
River Gauge Albury (Union Bridge) Murray 0.96 m 7/04/2020 12:15 Not measured Not measured Not measured 16.8°C 7/04/2020 12:15 55.0 μS/cm 7/04/2020 12:15 Not measured Full data
River Gauge Hinnomunjie Mitta 0.95 m 7/04/2020 11:45 1121 ML/Day 7/04/2020 11:45 Not measured Not measured 10.5°C 7/04/2020 11:45 36.7 μS/cm 7/04/2020 11:45 0.00 mm 7/04/2020 9:00 Full data
River Gauge Lake Albert Murray 0.59 m 7/04/2020 5:45 Not measured 243 GL 7/04/2020 5:45 Not measured Not measured Not measured Not measured Full data
River Gauge Rufus River Murray 20.3 m 7/04/2020 7:45 Not measured Not measured 1861.2 ML/d7/04/2020 7:45 Not measured 146.9 μS/cm 7/04/2020 9:45 Not measured Full data
River Gauge Echuca Wharf Murray 86.71 m 7/04/2020 7:45 Not measured Not measured Not measured Not measured Not measured Not measured Full data
River Gauge Wakool Canal Wakool 0.39 m 7/04/2020 11:45 Not measured Not measured 194.9 ML/d7/04/2020 8:45 Not measured Not measured Not measured Full data
River Gauge Wilcania Darling 4.94 m 7/04/2020 11:45 11021 ML/Day 7/04/2020 11:45 Not measured Not measured 22.7°C 7/04/2020 11:45 201.8 μS/cm 7/04/2020 11:45 Not measured Full data
River Gauge Corowa Murray 1.11 m 7/04/2020 12:15 3568 ML/Day 7/04/2020 12:15 Not measured Not measured 17.7°C 7/04/2020 12:15 72.2 μS/cm 7/04/2020 12:15 Not measured Full data
River Gauge Tauwitchere Barrage Murray 0.53 m 7/04/2020 11:45 Not measured Not measured Not measured Not measured Not measured Not measured Full data
River Gauge Biggara Murray 0.64 m 7/04/2020 12:15 954 ML/Day 7/04/2020 12:15 Not measured Not measured 15.8°C 7/04/2020 12:15 782.4 μS/cm 7/04/2020 12:15 0.2 mm 7/04/2020 9:00 Full data
River Gauge Colignan Murray 1.71 m 7/04/2020 11:45 5217 ML/Day 7/04/2020 11:45 Not measured Not measured 18.2°C 7/04/2020 11:45 85.9 μS/cm 7/04/2020 11:45 Not measured Full data
River Gauge Colemans Mitta 0.95 m 7/04/2020 12:15 248 ML/Day 7/04/2020 12:15 Not measured Not measured 14.8°C 7/04/2020 11:45 43.7 μS/cm 7/04/2020 11:45 Not measured Full data
River Gauge Tallandoon Mitta 1.53 m 7/04/2020 11:45 812 ML/Day 7/04/2020 11:45 Not measured Not measured 13.6°C 7/04/2020 11:45 45.1 μS/cm 7/04/2020 11:45 Not measured Full data
River Gauge Mundoo Barrage Murray 0.51 m 7/04/2020 7:45 Not measured Not measured Not measured Not measured Not measured Not measured Full data
River Gauge Bringenbrong Bridge Murray 1.87 m 7/04/2020 12:15 6245 ML/Day 7/04/2020 12:15 Not measured Not measured Not measured Not measured Not measured Full data
River Gauge Weir 32 Upstream Darling 2.06 m 7/04/2020 11:45 2607 ML/Day 7/04/2020 11:45 Not measured Not measured 20.2°C 7/04/2020 11:45 266.4 μS/cm 7/04/2020 11:45 Not measured Full data
River Gauge Yarrawonga Main Channel Murray 123.13 m 7/04/2020 11:45 Not measured Not measured 323.2 ML/d7/04/2020 11:45 Not measured Not measured Not measured Full data
River Gauge Balranald Murrumbidgee 0.55 m 7/04/2020 11:45 261 ML/Day 7/04/2020 11:45 Not measured Not measured 18.6°C 7/04/2020 11:45 86.4 μS/cm 7/04/2020 11:45 Not measured Full data
River Gauge Flow to South Australia Murray Not measured Not measured Not measured 4012.8 ML/d7/04/2020 7:45 Not measured Not measured Not measured Full data
River Gauge Torrumbarry Headworks Murray 85.23 m 7/04/2020 11:45 Not measured Not measured 1947.8 ML/d7/04/2020 11:45 Not measured Not measured Not measured Full data
River Gauge Pinegrove Murray 1.26 m 7/04/2020 12:15 459 ML/Day 7/04/2020 12:15 Not measured Not measured 13.2°C 7/04/2020 12:15 92.3 μS/cm 7/04/2020 12:15 0.00 mm 7/04/2020 9:00 Full data
River Gauge Burtundy Darling 0.5 m 7/04/2020 7:45 0.00 ML/Day 7/04/2020 7:45 Not measured Not measured 36.0°C 5/03/2020 14:30 1157.8 μS/cm 3/09/2019 14:45 Not measured Full data
River Gauge Mulwala Canal Murray Not measured Not measured Not measured 435.1 ML/d7/04/2020 8:45 Not measured Not measured Not measured Full data
River Gauge Peechelba Ovens 127.92 m 7/04/2020 11:45 3254 ML/Day 7/04/2020 11:45 Not measured Not measured 15.9°C 7/04/2020 11:45 55.4 μS/cm 7/04/2020 11:45 Not measured Full data
River Gauge Stoney Crossing Murray 1.36 m 7/04/2020 11:45 362 ML/Day 7/04/2020 11:45 Not measured 361.2 ML/d7/04/2020 7:45 18.6°C 7/04/2020 11:45 252.2 μS/cm 7/04/2020 11:45 Not measured Full data
River Gauge Jingellic Murray 2.08 m 7/04/2020 11:45 7845 ML/Day 7/04/2020 11:45 Not measured Not measured 15.6°C 7/04/2020 11:45 39.3 μS/cm 7/04/2020 11:45 0.2 mm 7/04/2020 9:00 Full data
River Gauge McCoy Bridge Goulburn 1.57 m 7/04/2020 10:45 1131 ML/Day 7/04/2020 10:45 Not measured Not measured 17.2°C 7/04/2020 10:45 74.4 μS/cm 7/04/2020 10:45 Not measured Full data